Airfield :
LOGIN :

Register | Disclaimer

   EN    FR    IT 

 










Legend :    VFR   Marginal VFR   IFR   Intensive IFR   Very Intensive IFR
Visi :
Ceiling :
>= 8 km
>= 3000ft
5 to 8 km
1000 to 3000 ft
1500m to 5 km
500 to 1000 ft
800 to 1500m
200 to 500 ft
< 800m
< 200 ft
Symbols :   Thunderstorms  Fog  Heavy snow  Heavy precipitations  Wind > 20 kt
SIGMETs :     Misc.  Thunderstorms  Icing  Turbulence  Mountain Waves  Volcanic Ashes






- Airport Elevation : 1260 ft
- IATA code : LDE


LFBT - Tarbes / Ossun

CURRENT METAR :
  • 241130Z AUTO 25012KT 9999 -RA FEW025 SCT044 BKN068 04/03 Q1010

EXPIRED METARs :
  • 241100Z AUTO 27013KT 9999 RA BKN016/// OVC026/// ///TCU 04/02 Q1010
  • 241030Z AUTO 27012KT 230V300 9999 -RA BKN016/// BKN023/// OVC029/// ///CB 05/03 Q1009
  • 241000Z AUTO 28010KT 9999 -RA FEW023/// BKN038/// BKN046/// ///CB 05/03 Q1009
  • 240930Z AUTO 25007KT 210V270 9999 FEW033/// BKN043/// BKN094/// ///CB 06/03 Q1008
  • 240900Z AUTO 24010KT 210V270 9999 -RADZ FEW016 BKN028 BKN048 05/03 Q1008
  • 240830Z AUTO 27009KT 230V290 9999 -RA FEW017 SCT026 BKN033 05/03 Q1007
  • 240800Z AUTO 25007KT 9999 FEW027 SCT035 BKN044 04/03 Q1007
  • 240730Z AUTO 27009KT 240V300 9999 RA FEW018/// BKN026/// BKN040/// ///TCU 03/02 Q1007
  • 240700Z AUTO 24008KT 9999 SCT012 SCT021 BKN043 03/02 Q1006

Expired Forecast.



MET'MAP, your aeronautical weather chart ! - Copyright ORBIFLY December 2007 - Disclaimer

ORBIFLY MET'MAP TEAM :

Programming & Development : Alexandra Zaïnal
Original concept : Baudouin d'Aumeries
Technical & hardware support : Manuel Goepfert
Assistance : Marc-Olivier Méhu




SOURCES & CREDITS :

   NOAA